Flight Track Log - Related Links

Times and Time Zones

All times are in EDT time to prevent confusion due to time zone crossing. See the SWA1035 flight status page for this flight to view local times or setup timezone preferences in your user account.

Time Position Orientation Groundspeed Altitude Reporting Facility
EDT Latitude Longitude Course Direction KTS MPH feet Rate Location/Type
Thu 04:57:46 PM 35.0436 -106.5417 90° East 187 215 7,100  Level Albuquerque Center
Thu 04:58:48 PM 35.0919 -106.5231 17° North 258 297 9,000 2,565 Climbing Albuquerque Center
Thu 04:59:50 PM 35.1436 -106.5900 313° West 270 311 12,400 3,561 Climbing Albuquerque Center
Thu 05:00:51 PM 35.1972 -106.6628 312° West 285 328 16,300 3,415 Climbing Albuquerque Center
Thu 05:01:53 PM 35.2542 -106.7344 314° West 280 322 19,400 2,371 Climbing Albuquerque Center
Thu 05:02:55 PM 35.3406 -106.7792 337° Northwest 294 338 21,200 1,790 Climbing Albuquerque Center
Thu 05:03:57 PM 35.4333 -106.8258 338° Northwest 339 390 23,100 2,032 Climbing Albuquerque Center
Thu 05:04:59 PM 35.5289 -106.8756 337° Northwest 364 419 25,400 1,968 Climbing Albuquerque Center
Thu 05:06:02 PM 35.6264 -106.9253 337° Northwest 375 432 27,200 1,935 Climbing Albuquerque Center
Thu 05:07:03 PM 35.7428 -106.9867 337° Northwest 390 449 29,400 1,366 Climbing Albuquerque Center
Thu 05:08:05 PM 35.8389 -107.0361 337° Northwest 391 450 30,000 290 Climbing Albuquerque Center
Thu 05:09:07 PM 35.9511 -107.0933 338° Northwest 390 449 30,000 829 Level Albuquerque Center
Thu 05:10:08 PM 36.0467 -107.1439 337° Northwest 387 445 31,700 1,659 Climbing Albuquerque Center
Thu 05:11:10 PM 36.1556 -107.2008 337° Northwest 385 443 33,400 1,742 Climbing Albuquerque Center
Thu 05:12:12 PM 36.2500 -107.2508 337° Northwest 385 443 35,300 1,742 Climbing Albuquerque Center
Thu 05:13:14 PM 36.3406 -107.2997 336° Northwest 377 434 37,000 1,444 Climbing Albuquerque Center
Thu 05:14:00 PM 36.4144 -107.3369 338° Northwest 366 421 37,900 556 Climbing Denver Center
Thu 05:15:02 PM 36.5219 -107.3842 341° North 370 426 38,000 48 Climbing Denver Center
Thu 05:16:04 PM 36.6239 -107.3958 355° North 385 443 38,000  Level Denver Center
Thu 05:17:06 PM 36.7428 -107.4064 356° North 386 444 38,000  Level Denver Center
Thu 05:18:08 PM 36.8442 -107.4161 356° North 382 440 38,000  Level Denver Center
Thu 05:19:10 PM 36.9389 -107.4869 329° Northwest 376 433 38,000  Level Denver Center
Thu 05:20:12 PM 37.0075 -107.5794 313° West 378 435 38,000  Level Denver Center
Thu 05:21:14 PM 37.0900 -107.6847 315° West 379 436 38,000  Level Denver Center
Thu 05:22:16 PM 37.1603 -107.7761 314° West 381 438 38,000  Level Denver Center
Thu 05:23:18 PM 37.2389 -107.8811 313° West 373 429 38,000  Level Denver Center
Thu 05:24:20 PM 37.3058 -107.9703 313° West 370 426 38,000  Level Denver Center
Thu 05:25:22 PM 37.3850 -108.0758 313° West 371 427 38,000  Level Denver Center
Thu 05:26:24 PM 37.4519 -108.1639 314° West 367 422 38,000  Level Denver Center
Thu 05:27:27 PM 37.5167 -108.2517 313° West 360 414 38,000  Level Denver Center
Thu 05:28:29 PM 37.5917 -108.3531 313° West 355 409 38,000  Level Denver Center
Thu 05:29:31 PM 37.6553 -108.4378 313° West 350 403 38,000  Level Denver Center
Thu 05:30:33 PM 37.7306 -108.5389 313° West 354 407 38,000  Level Denver Center
Thu 05:31:35 PM 37.7958 -108.6267 313° West 357 411 38,000  Level Denver Center
Thu 05:32:37 PM 37.8719 -108.7333 312° West 363 418 38,000  Level Denver Center
Thu 05:33:39 PM 37.9375 -108.8228 313° West 363 418 38,000  Level Denver Center
Thu 05:34:41 PM 38.0139 -108.9247 314° West 359 413 38,000  Level Denver Center
Thu 05:35:43 PM 38.0769 -109.0117 313° West 362 417 38,000  Level Denver Center
Thu 05:36:45 PM 38.1539 -109.1192 312° West 367 422 38,000  Level Denver Center
Thu 05:37:47 PM 38.2200 -109.2089 313° West 366 421 38,000  Level Denver Center
Thu 05:38:49 PM 38.2964 -109.3158 312° West 366 421 38,000  Level Denver Center
Thu 05:39:51 PM 38.3636 -109.4086 313° West 370 426 38,000  Level Denver Center
Thu 05:40:53 PM 38.4422 -109.5178 313° West 374 430 38,000  Level Denver Center
Thu 05:41:55 PM 38.5086 -109.6117 312° West 373 429 38,000  Level Denver Center
Thu 05:42:57 PM 38.5861 -109.7194 313° West 369 425 38,000  Level Denver Center
Thu 05:43:59 PM 38.6517 -109.8117 312° West 368 423 38,000  Level Denver Center
Thu 05:44:35 PM 38.6964 -109.8756 312° West 366 421 38,000  Level Salt Lake Center
Thu 05:45:36 PM 38.7631 -109.9692 312° West 371 427 38,000  Level Salt Lake Center
Thu 05:46:38 PM 38.8414 -110.0800 312° West 374 430 38,000  Level Salt Lake Center
Thu 05:47:05 PM 38.8747 -110.1275 312° West 377 434 38,000  Level Denver Center
Thu 05:47:40 PM 38.9086 -110.1753 312° West 375 432 38,000  Level Salt Lake Center
Thu 05:48:42 PM 38.9875 -110.2883 312° West 379 436 38,000  Level Salt Lake Center
Thu 05:49:44 PM 39.0547 -110.3853 312° West 379 436 38,000  Level Salt Lake Center
Thu 05:50:46 PM 39.1347 -110.5000 312° West 383 441 38,000  Level Salt Lake Center
Thu 05:51:26 PM 39.1558 -110.5314 311° West 381 438 38,000  Level Denver Center
Thu 05:52:28 PM 39.2475 -110.6617 312° West 383 441 38,000  Level Denver Center
Thu 05:52:50 PM 39.2697 -110.6942 311° West 379 436 38,000  Level Salt Lake Center
Thu 05:53:52 PM 39.3481 -110.8078 312° West 379 436 38,000  Level Salt Lake Center
Thu 05:54:54 PM 39.4144 -110.9053 311° West 377 434 38,000  Level Salt Lake Center
Thu 05:55:55 PM 39.4931 -111.0200 312° West 379 436 38,000  Level Salt Lake Center
Thu 05:56:57 PM 39.5608 -111.1200 311° West 385 443 38,000  Level Salt Lake Center
Thu 05:57:59 PM 39.6386 -111.2344 311° West 378 435 38,000  Level Salt Lake Center
Thu 05:59:01 PM 39.7031 -111.3294 311° West 385 443 38,000  Level Salt Lake Center
Thu 06:00:03 PM 39.7725 -111.4342 311° West 385 443 38,000  Level Salt Lake Center
Thu 06:01:04 PM 39.8517 -111.5511 311° West 382 440 38,000  Level Salt Lake Center
Thu 06:02:06 PM 39.9275 -111.6622 312° West 384 442 38,000  Level Salt Lake Center
Thu 06:03:08 PM 39.9972 -111.7681 311° West 382 440 38,000  Level Salt Lake Center
Thu 06:04:10 PM 40.0675 -111.8722 311° West 381 438 38,000  Level Salt Lake Center
Thu 06:05:12 PM 40.1364 -111.9778 311° West 380 437 38,000  Level Salt Lake Center
Thu 06:06:13 PM 40.2058 -112.0825 311° West 380 437 38,000  Level Salt Lake Center
Thu 06:07:15 PM 40.2756 -112.1883 311° West 382 440 38,000  Level Salt Lake Center
Thu 06:08:17 PM 40.3450 -112.2944 311° West 383 441 38,000  Level Salt Lake Center
Thu 06:09:19 PM 40.4286 -112.4222 311° West 383 441 38,000  Level Salt Lake Center
Thu 06:10:20 PM 40.4981 -112.5289 311° West 385 443 38,000  Level Salt Lake Center
Thu 06:11:22 PM 40.5678 -112.6361 311° West 384 442 38,000  Level Salt Lake Center
Thu 06:12:24 PM 40.6369 -112.7439 310° West 385 443 38,000  Level Salt Lake Center
Thu 06:13:26 PM 40.7069 -112.8514 311° West 385 443 38,000  Level Salt Lake Center
Thu 06:14:28 PM 40.7758 -112.9589 310° West 384 442 38,000  Level Salt Lake Center
Thu 06:15:29 PM 40.8458 -113.0678 310° West 387 445 38,000  Level Salt Lake Center
Thu 06:16:31 PM 40.9153 -113.1772 310° West 389 448 38,000  Level Salt Lake Center
Thu 06:17:33 PM 40.9975 -113.3081 310° West 387 445 38,000  Level Salt Lake Center
Thu 06:18:35 PM 41.0661 -113.4175 310° West 387 445 38,000  Level Salt Lake Center
Thu 06:19:37 PM 41.1364 -113.5278 310° West 389 448 38,000  Level Salt Lake Center
Thu 06:20:39 PM 41.2058 -113.6389 310° West 390 449 38,000  Level Salt Lake Center
Thu 06:21:40 PM 41.2747 -113.7492 310° West 389 448 38,000  Level Salt Lake Center
Thu 06:22:42 PM 41.3433 -113.8614 309° West 390 449 38,000  Level Salt Lake Center
Thu 06:23:44 PM 41.4128 -113.9744 309° West 394 453 38,000  Level Salt Lake Center
Thu 06:24:46 PM 41.4994 -114.1092 311° West 398 458 38,000  Level Salt Lake Center
Thu 06:25:48 PM 41.5686 -114.2239 309° West 397 457 38,000  Level Salt Lake Center
Thu 06:26:50 PM 41.6386 -114.3353 310° West 392 451 38,000  Level Salt Lake Center
Thu 06:27:51 PM 41.7075 -114.4497 309° West 394 453 38,000  Level Salt Lake Center
Thu 06:28:53 PM 41.7772 -114.5647 309° West 393 452 38,000  Level Salt Lake Center
Thu 06:29:55 PM 41.8583 -114.6928 310° West 406 467 38,000  Level Salt Lake Center
Thu 06:30:57 PM 41.9244 -114.8017 309° West 397 457 38,000  Level Salt Lake Center
Thu 06:31:59 PM 42.0022 -114.9317 309° West 400 460 38,000  Level Salt Lake Center
Thu 06:33:00 PM 42.0694 -115.0431 309° West 408 470 38,000  Level Salt Lake Center
Thu 06:34:02 PM 42.1381 -115.1578 309° West 403 464 38,000  Level Salt Lake Center
Thu 06:35:05 PM 42.2175 -115.2892 309° West 403 464 38,000  Level Salt Lake Center
Thu 06:36:06 PM 42.2858 -115.4050 309° West 411 473 38,000  Level Salt Lake Center
Thu 06:37:08 PM 42.3661 -115.5400 309° West 413 475 38,000  Level Salt Lake Center
Thu 06:38:09 PM 42.4339 -115.6531 309° West 405 466 38,000  Level Salt Lake Center
Thu 06:39:11 PM 42.5128 -115.7878 308° West 408 470 38,000  Level Salt Lake Center
Thu 06:40:13 PM 42.5803 -115.9028 309° West 408 470 38,000  Level Salt Lake Center
Thu 06:41:14 PM 42.6486 -116.0181 309° West 409 471 38,000  Level Salt Lake Center
Thu 06:42:16 PM 42.7261 -116.1531 308° West 405 466 38,000  Level Salt Lake Center
Thu 06:43:18 PM 42.7936 -116.2694 308° West 407 468 38,000  Level Salt Lake Center
Thu 06:44:20 PM 42.8708 -116.4019 309° West 400 460 38,000  Level Salt Lake Center
Thu 06:45:21 PM 42.9372 -116.5178 308° West 403 464 38,000  Level Salt Lake Center
Thu 06:46:23 PM 43.0142 -116.6517 308° West 402 463 38,000  Level Salt Lake Center
Thu 06:47:25 PM 43.0794 -116.7650 308° West 397 457 38,000  Level Salt Lake Center
Thu 06:48:27 PM 43.1444 -116.8800 308° West 398 458 38,000  Level Salt Lake Center
Thu 06:49:28 PM 43.2208 -117.0153 308° West 400 460 38,000  Level Salt Lake Center
Thu 06:50:30 PM 43.2861 -117.1300 308° West 398 458 38,000  Level Salt Lake Center
Thu 06:51:32 PM 43.3633 -117.2667 308° West 404 465 38,000  Level Salt Lake Center
Thu 06:52:34 PM 43.4286 -117.3847 307° West 406 467 38,000  Level Salt Lake Center
Thu 06:53:35 PM 43.4942 -117.5017 308° West 403 464 38,000  Level Salt Lake Center
Thu 06:54:37 PM 43.5703 -117.6386 308° West 401 461 38,000  Level Salt Lake Center
Thu 06:55:39 PM 43.6342 -117.7544 307° West 396 456 38,000  Level Salt Lake Center
Thu 06:56:40 PM 43.7089 -117.8908 307° West 396 456 38,000  Level Salt Lake Center
Thu 06:57:42 PM 43.7736 -118.0081 307° West 398 458 38,000  Level Salt Lake Center
Thu 06:58:44 PM 43.8475 -118.1439 307° West 396 456 38,000  Level Salt Lake Center
Thu 06:59:45 PM 43.9117 -118.2608 307° West 396 456 38,000  Level Salt Lake Center
Thu 07:00:47 PM 43.9764 -118.3781 308° West 396 456 38,000  Level Salt Lake Center
Thu 07:01:49 PM 44.0417 -118.5031 306° West 399 459 38,000  Level Salt Lake Center
Thu 07:02:50 PM 44.1083 -118.6253 307° West 399 459 38,000  Level Salt Lake Center
Thu 07:03:07 PM 44.1339 -118.6756 305° West 399 459 38,000  Level Seattle Center
Thu 07:04:08 PM 44.1983 -118.7992 306° West 397 457 38,000  Level Seattle Center
Thu 07:05:09 PM 44.2653 -118.9214 307° West 397 457 38,000  Level Seattle Center
Thu 07:06:10 PM 44.3317 -119.0442 307° West 398 458 38,000  Level Seattle Center
Thu 07:07:11 PM 44.3969 -119.1683 306° West 397 457 38,000  Level Seattle Center
Thu 07:08:12 PM 44.4625 -119.2925 307° West 397 457 38,000  Level Seattle Center
Thu 07:09:13 PM 44.5264 -119.4167 306° West 394 453 38,000  Level Seattle Center
Thu 07:10:14 PM 44.5922 -119.5408 307° West 397 457 38,000  Level Seattle Center
Thu 07:11:15 PM 44.6558 -119.6650 306° West 392 451 38,000  Level Seattle Center
Thu 07:12:16 PM 44.7331 -119.8164 306° West 395 455 38,000  Level Seattle Center
Thu 07:13:17 PM 44.7967 -119.9419 306° West 392 451 38,000  Level Seattle Center
Thu 07:14:18 PM 44.8628 -120.0711 306° West 399 459 38,000  Level Seattle Center
Thu 07:15:19 PM 44.9144 -120.1744 305° West 397 457 38,000 -836 Level Seattle Center
Thu 07:16:20 PM 44.9911 -120.3242 306° West 391 450 36,300 -2,361 Descending Seattle Center
Thu 07:17:21 PM 45.0561 -120.4539 305° West 400 460 33,200 -2,656 Descending Seattle Center
Thu 07:18:22 PM 45.1197 -120.5786 306° West 393 452 30,900 -2,164 Descending Seattle Center
Thu 07:19:23 PM 45.1803 -120.7008 305° West 381 438 28,800 -2,016 Descending Seattle Center
Thu 07:20:24 PM 45.2381 -120.8169 305° West 363 418 26,800 -1,967 Descending Seattle Center
Thu 07:21:25 PM 45.2950 -120.9308 305° West 356 410 24,800 -2,016 Descending Seattle Center
Thu 07:22:26 PM 45.3481 -121.0417 304° West 342 394 22,700 -1,918 Descending Seattle Center
Thu 07:23:27 PM 45.4025 -121.1492 306° West 336 387 20,900 -2,016 Descending Seattle Center
Thu 07:24:28 PM 45.4358 -121.2675 292° West 328 377 18,600 -2,429 Descending Seattle Center
Thu 07:24:51 PM 45.4447 -121.3258 282° West 336 387 17,500 -2,066 Descending Seattle Center
Thu 07:25:29 PM 45.4528 -121.3989 279° West 337 388 16,500 -1,906 Descending Seattle Center
Thu 07:26:16 PM 45.4675 -121.5139 280° West 317 365 14,800 -1,882 Descending Seattle Center
Thu 07:27:11 PM 45.4811 -121.6194 280° West 301 346 13,300 -1,440 Descending Seattle Center
Thu 07:27:31 PM 45.4817 -121.6383 272° West 304 350 13,000 -1,522 Descending Seattle Center
Thu 07:28:18 PM 45.4950 -121.7467 280° West 296 341 11,600 -1,611 Descending Seattle Center
Thu 07:29:19 PM 45.5008 -121.8583 274° West 283 326 10,100 -1,579 Descending Seattle Center
Thu 07:29:34 PM 45.5006 -121.8881 269° West 283 326 9,600 -1,800 Descending Seattle Center
Thu 07:30:19 PM 45.5039 -121.9775 273° West 279 321 8,300 -1,500 Descending Seattle Center
Thu 07:30:34 PM 45.5036 -121.9847 267° West 281 323 8,100 -1,869 Descending Seattle Center
Thu 07:31:20 PM 45.5067 -122.0844 273° West 269 310 6,400 -1,869 Descending Seattle Center
Thu 07:31:35 PM 45.5064 -122.0922 267° West 273 314 6,200 -1,574 Descending Seattle Center
Thu 07:32:21 PM 45.5067 -122.1894 270° West 267 307 4,800 -1,475 Descending Seattle Center
Thu 07:32:36 PM 45.5094 -122.1989 293° West 274 315 4,700 -787 Descending Seattle Center
Thu 07:33:22 PM 45.5097 -122.2900 270° West 253 291 4,000 -689 Descending Seattle Center
Thu 07:33:37 PM 45.5122 -122.3172 277° West 258 297 4,000 -716 Level Seattle Center
Thu 07:34:29 PM 45.5114 -122.3819 269° West 177 204 3,200 -956 Descending Seattle Center
Thu 07:35:30 PM 45.5342 -122.4403 299° West 168 193 2,200 -992 Descending Seattle Center
Thu 07:36:30 PM 45.5561 -122.4961 299° West 158 182 1,200 -843 Descending Seattle Center
Thu 07:37:31 PM 45.5739 -122.5411 299° West 128 147 500 -689 Descending Seattle Center
Thu 07:39:00 PM 45.5833 -122.5833 282° West  Level FlightAware Approximate

Login

Don't have an account? Register now (free) for customized features, flight alerts, and more!